sensor_id;sensor_type;location;lat;lon;timestamp;temperature;humidity
37998;DHT22;24079;51.824;4.682;2024-03-02T00:00:19;7.70;99.90
37998;DHT22;24079;51.824;4.682;2024-03-02T00:02:47;7.70;99.90
37998;DHT22;24079;51.824;4.682;2024-03-02T00:07:44;7.70;99.90
37998;DHT22;24079;51.824;4.682;2024-03-02T00:10:14;7.70;99.90
37998;DHT22;24079;51.824;4.682;2024-03-02T00:12:41;7.70;99.90
37998;DHT22;24079;51.824;4.682;2024-03-02T00:17:56;7.70;99.90
37998;DHT22;24079;51.824;4.682;2024-03-02T00:20:23;7.70;99.90
37998;DHT22;24079;51.824;4.682;2024-03-02T00:22:49;7.60;99.90
37998;DHT22;24079;51.824;4.682;2024-03-02T00:25:16;7.70;99.90
37998;DHT22;24079;51.824;4.682;2024-03-02T00:27:41;7.60;99.90
37998;DHT22;24079;51.824;4.682;2024-03-02T00:33:08;7.60;99.90
37998;DHT22;24079;51.824;4.682;2024-03-02T00:35:34;7.60;99.90
37998;DHT22;24079;51.824;4.682;2024-03-02T00:38:07;7.60;99.90
37998;DHT22;24079;51.824;4.682;2024-03-02T00:40:32;7.60;99.90
37998;DHT22;24079;51.824;4.682;2024-03-02T00:42:59;7.60;99.90
37998;DHT22;24079;51.824;4.682;2024-03-02T00:45:25;7.60;99.90
37998;DHT22;24079;51.824;4.682;2024-03-02T00:47:51;7.60;99.90
37998;DHT22;24079;51.824;4.682;2024-03-02T00:50:18;7.50;99.90
37998;DHT22;24079;51.824;4.682;2024-03-02T00:52:44;7.50;99.90
37998;DHT22;24079;51.824;4.682;2024-03-02T00:55:09;7.50;99.90
37998;DHT22;24079;51.824;4.682;2024-03-02T00:57:35;7.50;99.90
37998;DHT22;24079;51.824;4.682;2024-03-02T01:00:01;7.50;99.90
37998;DHT22;24079;51.824;4.682;2024-03-02T01:02:28;7.50;99.90
37998;DHT22;24079;51.824;4.682;2024-03-02T01:04:54;7.50;99.90
37998;DHT22;24079;51.824;4.682;2024-03-02T01:07:20;7.50;99.90
37998;DHT22;24079;51.824;4.682;2024-03-02T01:09:46;7.50;99.90
37998;DHT22;24079;51.824;4.682;2024-03-02T01:12:12;7.50;99.90
37998;DHT22;24079;51.824;4.682;2024-03-02T01:14:38;7.50;99.90
37998;DHT22;24079;51.824;4.682;2024-03-02T01:17:04;7.60;99.90
37998;DHT22;24079;51.824;4.682;2024-03-02T01:19:30;7.50;99.90
37998;DHT22;24079;51.824;4.682;2024-03-02T01:21:56;7.60;99.90
37998;DHT22;24079;51.824;4.682;2024-03-02T01:24:22;7.50;99.90
37998;DHT22;24079;51.824;4.682;2024-03-02T01:26:48;7.60;99.90
37998;DHT22;24079;51.824;4.682;2024-03-02T01:29:14;7.50;99.90
37998;DHT22;24079;51.824;4.682;2024-03-02T01:31:40;7.50;99.90
37998;DHT22;24079;51.824;4.682;2024-03-02T01:34:08;7.50;99.90
37998;DHT22;24079;51.824;4.682;2024-03-02T01:36:34;7.50;99.90
37998;DHT22;24079;51.824;4.682;2024-03-02T01:39:00;7.50;99.90
37998;DHT22;24079;51.824;4.682;2024-03-02T01:41:26;7.50;99.90
37998;DHT22;24079;51.824;4.682;2024-03-02T01:43:52;7.50;99.90
37998;DHT22;24079;51.824;4.682;2024-03-02T01:46:19;7.50;99.90
37998;DHT22;24079;51.824;4.682;2024-03-02T01:48:45;7.50;99.90
37998;DHT22;24079;51.824;4.682;2024-03-02T01:51:11;7.50;99.90
37998;DHT22;24079;51.824;4.682;2024-03-02T01:53:36;7.50;99.90
37998;DHT22;24079;51.824;4.682;2024-03-02T01:56:02;7.50;99.90
37998;DHT22;24079;51.824;4.682;2024-03-02T01:58:28;7.40;99.90
37998;DHT22;24079;51.824;4.682;2024-03-02T02:00:54;7.40;99.90
37998;DHT22;24079;51.824;4.682;2024-03-02T02:03:19;7.40;99.90
37998;DHT22;24079;51.824;4.682;2024-03-02T02:05:45;7.40;99.90
37998;DHT22;24079;51.824;4.682;2024-03-02T02:08:13;7.40;99.90
37998;DHT22;24079;51.824;4.682;2024-03-02T02:10:38;7.40;99.90
37998;DHT22;24079;51.824;4.682;2024-03-02T02:13:04;7.40;99.90
37998;DHT22;24079;51.824;4.682;2024-03-02T02:15:30;7.40;99.90
37998;DHT22;24079;51.824;4.682;2024-03-02T02:17:57;7.40;99.90
37998;DHT22;24079;51.824;4.682;2024-03-02T02:20:24;7.40;99.90
37998;DHT22;24079;51.824;4.682;2024-03-02T02:23:01;7.50;99.90
37998;DHT22;24079;51.824;4.682;2024-03-02T02:25:27;7.40;99.90
37998;DHT22;24079;51.824;4.682;2024-03-02T02:27:53;7.40;99.90
37998;DHT22;24079;51.824;4.682;2024-03-02T02:30:24;7.40;99.90
37998;DHT22;24079;51.824;4.682;2024-03-02T02:32:50;7.40;99.90
37998;DHT22;24079;51.824;4.682;2024-03-02T02:35:16;7.50;99.90
37998;DHT22;24079;51.824;4.682;2024-03-02T02:37:42;7.50;99.90
37998;DHT22;24079;51.824;4.682;2024-03-02T02:40:08;7.50;99.90
37998;DHT22;24079;51.824;4.682;2024-03-02T02:42:34;7.50;99.90
37998;DHT22;24079;51.824;4.682;2024-03-02T02:45:00;7.50;99.90
37998;DHT22;24079;51.824;4.682;2024-03-02T02:47:26;7.60;99.90
37998;DHT22;24079;51.824;4.682;2024-03-02T02:49:51;7.50;99.90
37998;DHT22;24079;51.824;4.682;2024-03-02T02:52:17;7.50;99.90
37998;DHT22;24079;51.824;4.682;2024-03-02T02:54:44;7.50;99.90
37998;DHT22;24079;51.824;4.682;2024-03-02T02:57:09;7.50;99.90
37998;DHT22;24079;51.824;4.682;2024-03-02T02:59:36;7.50;99.90
37998;DHT22;24079;51.824;4.682;2024-03-02T03:02:02;7.50;99.90
37998;DHT22;24079;51.824;4.682;2024-03-02T03:04:27;7.50;99.90
37998;DHT22;24079;51.824;4.682;2024-03-02T03:06:53;7.50;99.90
37998;DHT22;24079;51.824;4.682;2024-03-02T03:09:19;7.50;99.90
37998;DHT22;24079;51.824;4.682;2024-03-02T03:11:44;7.60;99.90
37998;DHT22;24079;51.824;4.682;2024-03-02T03:14:10;7.60;99.90
37998;DHT22;24079;51.824;4.682;2024-03-02T03:16:35;7.50;99.90
37998;DHT22;24079;51.824;4.682;2024-03-02T03:19:01;7.60;99.90
37998;DHT22;24079;51.824;4.682;2024-03-02T03:21:27;7.50;99.90
37998;DHT22;24079;51.824;4.682;2024-03-02T03:23:52;7.50;99.90
37998;DHT22;24079;51.824;4.682;2024-03-02T03:26:18;7.50;99.90
37998;DHT22;24079;51.824;4.682;2024-03-02T03:28:43;7.50;99.90
37998;DHT22;24079;51.824;4.682;2024-03-02T03:31:09;7.50;99.90
37998;DHT22;24079;51.824;4.682;2024-03-02T03:33:36;7.50;99.90
37998;DHT22;24079;51.824;4.682;2024-03-02T03:36:01;7.40;99.90
37998;DHT22;24079;51.824;4.682;2024-03-02T03:38:29;7.40;99.90
37998;DHT22;24079;51.824;4.682;2024-03-02T03:40:54;7.30;99.90
37998;DHT22;24079;51.824;4.682;2024-03-02T03:43:20;7.30;99.90
37998;DHT22;24079;51.824;4.682;2024-03-02T03:45:46;7.30;99.90
37998;DHT22;24079;51.824;4.682;2024-03-02T03:48:11;7.30;99.90
37998;DHT22;24079;51.824;4.682;2024-03-02T03:50:37;7.30;99.90
37998;DHT22;24079;51.824;4.682;2024-03-02T03:53:03;7.30;99.90
37998;DHT22;24079;51.824;4.682;2024-03-02T03:55:29;7.30;99.90
37998;DHT22;24079;51.824;4.682;2024-03-02T03:57:54;7.30;99.90
37998;DHT22;24079;51.824;4.682;2024-03-02T04:00:20;7.30;99.90
37998;DHT22;24079;51.824;4.682;2024-03-02T04:02:46;7.30;99.90
37998;DHT22;24079;51.824;4.682;2024-03-02T04:05:12;7.30;99.90
37998;DHT22;24079;51.824;4.682;2024-03-02T04:07:38;7.40;99.90
37998;DHT22;24079;51.824;4.682;2024-03-02T04:10:10;7.30;99.90
37998;DHT22;24079;51.824;4.682;2024-03-02T04:12:36;7.30;99.90
37998;DHT22;24079;51.824;4.682;2024-03-02T04:15:04;7.30;99.90
37998;DHT22;24079;51.824;4.682;2024-03-02T04:17:32;7.30;99.90
37998;DHT22;24079;51.824;4.682;2024-03-02T04:19:59;7.30;99.90
37998;DHT22;24079;51.824;4.682;2024-03-02T04:22:27;7.30;99.90
37998;DHT22;24079;51.824;4.682;2024-03-02T04:24:53;7.20;99.90
37998;DHT22;24079;51.824;4.682;2024-03-02T04:27:19;7.30;99.90
37998;DHT22;24079;51.824;4.682;2024-03-02T04:29:45;7.20;99.90
37998;DHT22;24079;51.824;4.682;2024-03-02T04:32:11;7.20;99.90
37998;DHT22;24079;51.824;4.682;2024-03-02T04:34:37;7.20;99.90
37998;DHT22;24079;51.824;4.682;2024-03-02T04:37:03;7.20;99.90
37998;DHT22;24079;51.824;4.682;2024-03-02T04:39:29;7.20;99.90
37998;DHT22;24079;51.824;4.682;2024-03-02T04:41:55;7.10;99.90
37998;DHT22;24079;51.824;4.682;2024-03-02T04:44:21;7.10;99.90
37998;DHT22;24079;51.824;4.682;2024-03-02T04:46:47;7.10;99.90
37998;DHT22;24079;51.824;4.682;2024-03-02T04:49:13;7.10;99.90
37998;DHT22;24079;51.824;4.682;2024-03-02T04:51:39;7.10;99.90
37998;DHT22;24079;51.824;4.682;2024-03-02T04:54:04;7.10;99.90
37998;DHT22;24079;51.824;4.682;2024-03-02T04:56:30;7.10;99.90
37998;DHT22;24079;51.824;4.682;2024-03-02T04:59:09;7.20;99.90
37998;DHT22;24079;51.824;4.682;2024-03-02T05:01:35;7.20;99.90
37998;DHT22;24079;51.824;4.682;2024-03-02T05:04:01;7.20;99.90
37998;DHT22;24079;51.824;4.682;2024-03-02T05:06:26;7.10;99.90
37998;DHT22;24079;51.824;4.682;2024-03-02T05:08:52;7.10;99.90
37998;DHT22;24079;51.824;4.682;2024-03-02T05:11:18;7.10;99.90
37998;DHT22;24079;51.824;4.682;2024-03-02T05:14:02;7.10;99.90
37998;DHT22;24079;51.824;4.682;2024-03-02T05:16:27;7.10;99.90
37998;DHT22;24079;51.824;4.682;2024-03-02T05:18:53;7.10;99.90
37998;DHT22;24079;51.824;4.682;2024-03-02T05:21:19;7.10;99.90
37998;DHT22;24079;51.824;4.682;2024-03-02T05:23:44;7.10;99.90
37998;DHT22;24079;51.824;4.682;2024-03-02T05:26:10;7.10;99.90
37998;DHT22;24079;51.824;4.682;2024-03-02T05:28:38;7.10;99.90
37998;DHT22;24079;51.824;4.682;2024-03-02T05:31:04;7.20;99.90
37998;DHT22;24079;51.824;4.682;2024-03-02T05:33:30;7.20;99.90
37998;DHT22;24079;51.824;4.682;2024-03-02T05:35:58;7.20;99.90
37998;DHT22;24079;51.824;4.682;2024-03-02T05:38:24;7.20;99.90
37998;DHT22;24079;51.824;4.682;2024-03-02T05:40:49;7.20;99.90
37998;DHT22;24079;51.824;4.682;2024-03-02T05:43:15;7.20;99.90
37998;DHT22;24079;51.824;4.682;2024-03-02T05:45:41;7.20;99.90
37998;DHT22;24079;51.824;4.682;2024-03-02T05:48:07;7.30;99.90
37998;DHT22;24079;51.824;4.682;2024-03-02T05:50:33;7.20;99.90
37998;DHT22;24079;51.824;4.682;2024-03-02T05:52:58;7.30;99.90
37998;DHT22;24079;51.824;4.682;2024-03-02T05:55:24;7.20;99.90
37998;DHT22;24079;51.824;4.682;2024-03-02T05:57:50;7.20;99.90
37998;DHT22;24079;51.824;4.682;2024-03-02T06:00:38;7.30;99.90
37998;DHT22;24079;51.824;4.682;2024-03-02T06:03:04;7.30;99.90
37998;DHT22;24079;51.824;4.682;2024-03-02T06:05:31;7.30;99.90
37998;DHT22;24079;51.824;4.682;2024-03-02T06:07:56;7.20;99.90
37998;DHT22;24079;51.824;4.682;2024-03-02T06:10:22;7.20;99.90
37998;DHT22;24079;51.824;4.682;2024-03-02T06:12:48;7.20;99.90
37998;DHT22;24079;51.824;4.682;2024-03-02T06:15:13;7.10;99.90
37998;DHT22;24079;51.824;4.682;2024-03-02T06:17:39;7.10;99.90
37998;DHT22;24079;51.824;4.682;2024-03-02T06:20:05;7.10;99.90
37998;DHT22;24079;51.824;4.682;2024-03-02T06:22:33;7.00;99.90
37998;DHT22;24079;51.824;4.682;2024-03-02T06:24:59;7.00;99.90
37998;DHT22;24079;51.824;4.682;2024-03-02T06:27:24;7.00;99.90
37998;DHT22;24079;51.824;4.682;2024-03-02T06:29:50;7.00;99.90
37998;DHT22;24079;51.824;4.682;2024-03-02T06:32:16;7.00;99.90
37998;DHT22;24079;51.824;4.682;2024-03-02T06:34:42;7.00;99.90
37998;DHT22;24079;51.824;4.682;2024-03-02T06:37:08;7.00;99.90
37998;DHT22;24079;51.824;4.682;2024-03-02T06:39:33;7.10;99.90
37998;DHT22;24079;51.824;4.682;2024-03-02T06:42:00;7.10;99.90
37998;DHT22;24079;51.824;4.682;2024-03-02T06:44:25;7.10;99.90
37998;DHT22;24079;51.824;4.682;2024-03-02T06:46:51;7.10;99.90
37998;DHT22;24079;51.824;4.682;2024-03-02T06:49:17;7.10;99.90
37998;DHT22;24079;51.824;4.682;2024-03-02T06:51:44;7.20;99.90
37998;DHT22;24079;51.824;4.682;2024-03-02T06:54:09;7.20;99.90
37998;DHT22;24079;51.824;4.682;2024-03-02T06:56:35;7.20;99.90
37998;DHT22;24079;51.824;4.682;2024-03-02T06:59:01;7.10;99.90
37998;DHT22;24079;51.824;4.682;2024-03-02T07:01:26;7.10;99.90
37998;DHT22;24079;51.824;4.682;2024-03-02T07:03:53;7.10;99.90
37998;DHT22;24079;51.824;4.682;2024-03-02T07:06:19;7.10;99.90
37998;DHT22;24079;51.824;4.682;2024-03-02T07:08:44;7.10;99.90
37998;DHT22;24079;51.824;4.682;2024-03-02T07:11:10;7.10;99.90
37998;DHT22;24079;51.824;4.682;2024-03-02T07:13:35;7.10;99.90
37998;DHT22;24079;51.824;4.682;2024-03-02T07:16:01;7.10;99.90
37998;DHT22;24079;51.824;4.682;2024-03-02T07:18:32;7.10;99.90
37998;DHT22;24079;51.824;4.682;2024-03-02T07:20:59;7.00;99.90
37998;DHT22;24079;51.824;4.682;2024-03-02T07:23:26;7.10;99.90
37998;DHT22;24079;51.824;4.682;2024-03-02T07:25:56;7.10;99.90
37998;DHT22;24079;51.824;4.682;2024-03-02T07:28:25;7.10;99.90
37998;DHT22;24079;51.824;4.682;2024-03-02T07:31:04;7.10;99.90
37998;DHT22;24079;51.824;4.682;2024-03-02T07:33:30;7.20;99.90
37998;DHT22;24079;51.824;4.682;2024-03-02T07:35:56;7.30;99.90
37998;DHT22;24079;51.824;4.682;2024-03-02T07:38:22;7.40;99.90
37998;DHT22;24079;51.824;4.682;2024-03-02T07:40:49;7.50;99.90
37998;DHT22;24079;51.824;4.682;2024-03-02T07:43:18;7.50;99.90
37998;DHT22;24079;51.824;4.682;2024-03-02T07:45:45;7.60;99.90
37998;DHT22;24079;51.824;4.682;2024-03-02T07:48:10;7.60;99.90
37998;DHT22;24079;51.824;4.682;2024-03-02T07:50:36;7.60;99.90
37998;DHT22;24079;51.824;4.682;2024-03-02T07:53:03;7.60;99.90
37998;DHT22;24079;51.824;4.682;2024-03-02T07:55:29;7.60;99.90
37998;DHT22;24079;51.824;4.682;2024-03-02T07:57:56;7.80;99.90
37998;DHT22;24079;51.824;4.682;2024-03-02T08:00:22;7.80;99.90
37998;DHT22;24079;51.824;4.682;2024-03-02T08:02:48;7.90;99.90
37998;DHT22;24079;51.824;4.682;2024-03-02T08:05:16;8.00;99.90
37998;DHT22;24079;51.824;4.682;2024-03-02T08:07:44;8.10;99.90
37998;DHT22;24079;51.824;4.682;2024-03-02T08:10:10;8.20;99.90
37998;DHT22;24079;51.824;4.682;2024-03-02T08:12:35;8.30;99.90
37998;DHT22;24079;51.824;4.682;2024-03-02T08:15:01;8.60;99.90
37998;DHT22;24079;51.824;4.682;2024-03-02T08:17:27;8.80;99.90
37998;DHT22;24079;51.824;4.682;2024-03-02T08:19:53;9.00;99.90
37998;DHT22;24079;51.824;4.682;2024-03-02T08:22:19;9.10;99.90
37998;DHT22;24079;51.824;4.682;2024-03-02T08:24:45;9.10;99.90
37998;DHT22;24079;51.824;4.682;2024-03-02T08:27:11;9.10;99.90
37998;DHT22;24079;51.824;4.682;2024-03-02T08:29:37;9.10;99.90
37998;DHT22;24079;51.824;4.682;2024-03-02T08:32:03;9.30;99.90
37998;DHT22;24079;51.824;4.682;2024-03-02T08:34:29;9.50;99.90
37998;DHT22;24079;51.824;4.682;2024-03-02T08:36:54;9.50;99.90
37998;DHT22;24079;51.824;4.682;2024-03-02T08:39:20;9.40;99.90
37998;DHT22;24079;51.824;4.682;2024-03-02T08:41:46;9.50;99.90
37998;DHT22;24079;51.824;4.682;2024-03-02T08:44:13;9.50;99.90
37998;DHT22;24079;51.824;4.682;2024-03-02T08:46:39;9.70;99.90
37998;DHT22;24079;51.824;4.682;2024-03-02T08:49:05;9.80;99.90
37998;DHT22;24079;51.824;4.682;2024-03-02T08:51:31;9.80;99.90
37998;DHT22;24079;51.824;4.682;2024-03-02T08:53:57;9.90;99.90
37998;DHT22;24079;51.824;4.682;2024-03-02T08:56:24;10.00;99.90
37998;DHT22;24079;51.824;4.682;2024-03-02T08:58:50;10.20;99.90
37998;DHT22;24079;51.824;4.682;2024-03-02T09:01:17;10.20;99.90
37998;DHT22;24079;51.824;4.682;2024-03-02T09:03:43;10.20;99.90
37998;DHT22;24079;51.824;4.682;2024-03-02T09:06:12;10.20;99.90
37998;DHT22;24079;51.824;4.682;2024-03-02T09:08:38;10.10;99.90
37998;DHT22;24079;51.824;4.682;2024-03-02T09:11:05;10.10;99.90
37998;DHT22;24079;51.824;4.682;2024-03-02T09:13:31;10.10;99.90
37998;DHT22;24079;51.824;4.682;2024-03-02T09:15:57;10.10;99.90
37998;DHT22;24079;51.824;4.682;2024-03-02T09:18:23;10.10;99.90
37998;DHT22;24079;51.824;4.682;2024-03-02T09:20:48;10.20;99.90
37998;DHT22;24079;51.824;4.682;2024-03-02T09:23:14;10.30;99.90
37998;DHT22;24079;51.824;4.682;2024-03-02T09:25:40;10.40;99.90
37998;DHT22;24079;51.824;4.682;2024-03-02T09:28:05;10.40;99.90
37998;DHT22;24079;51.824;4.682;2024-03-02T09:30:32;10.30;99.90
37998;DHT22;24079;51.824;4.682;2024-03-02T09:32:58;10.40;99.90
37998;DHT22;24079;51.824;4.682;2024-03-02T09:35:24;10.50;99.90
37998;DHT22;24079;51.824;4.682;2024-03-02T09:37:50;10.60;99.90
37998;DHT22;24079;51.824;4.682;2024-03-02T09:40:16;10.70;99.90
37998;DHT22;24079;51.824;4.682;2024-03-02T09:42:42;10.80;99.90
37998;DHT22;24079;51.824;4.682;2024-03-02T09:45:09;10.80;99.90
37998;DHT22;24079;51.824;4.682;2024-03-02T09:47:35;10.80;99.90
37998;DHT22;24079;51.824;4.682;2024-03-02T09:50:01;10.90;99.90
37998;DHT22;24079;51.824;4.682;2024-03-02T09:52:27;11.00;99.90
37998;DHT22;24079;51.824;4.682;2024-03-02T09:54:53;10.90;99.90
37998;DHT22;24079;51.824;4.682;2024-03-02T09:57:18;10.90;99.90
37998;DHT22;24079;51.824;4.682;2024-03-02T09:59:44;10.80;99.90
37998;DHT22;24079;51.824;4.682;2024-03-02T10:02:11;10.70;99.90
37998;DHT22;24079;51.824;4.682;2024-03-02T10:04:36;10.70;99.90
37998;DHT22;24079;51.824;4.682;2024-03-02T10:07:12;10.80;99.90
37998;DHT22;24079;51.824;4.682;2024-03-02T10:09:39;10.80;99.90
37998;DHT22;24079;51.824;4.682;2024-03-02T10:12:06;10.80;99.90
37998;DHT22;24079;51.824;4.682;2024-03-02T10:14:32;11.00;99.90
37998;DHT22;24079;51.824;4.682;2024-03-02T10:17:12;11.10;99.90
37998;DHT22;24079;51.824;4.682;2024-03-02T10:19:38;11.10;99.90
37998;DHT22;24079;51.824;4.682;2024-03-02T10:22:05;11.20;99.90
37998;DHT22;24079;51.824;4.682;2024-03-02T10:24:40;11.30;99.90
37998;DHT22;24079;51.824;4.682;2024-03-02T10:27:26;11.30;99.90
37998;DHT22;24079;51.824;4.682;2024-03-02T10:29:52;11.40;99.90
37998;DHT22;24079;51.824;4.682;2024-03-02T10:32:17;11.50;99.90
37998;DHT22;24079;51.824;4.682;2024-03-02T10:34:45;11.60;99.90
37998;DHT22;24079;51.824;4.682;2024-03-02T10:37:11;11.70;99.90
37998;DHT22;24079;51.824;4.682;2024-03-02T10:39:39;11.80;99.90
37998;DHT22;24079;51.824;4.682;2024-03-02T10:42:08;11.80;99.90
37998;DHT22;24079;51.824;4.682;2024-03-02T10:44:34;11.80;99.90
37998;DHT22;24079;51.824;4.682;2024-03-02T10:47:01;11.80;99.90
37998;DHT22;24079;51.824;4.682;2024-03-02T10:49:33;11.90;99.90
37998;DHT22;24079;51.824;4.682;2024-03-02T10:51:59;12.00;99.90
37998;DHT22;24079;51.824;4.682;2024-03-02T10:54:25;11.90;99.90
37998;DHT22;24079;51.824;4.682;2024-03-02T10:56:53;11.80;99.90
37998;DHT22;24079;51.824;4.682;2024-03-02T11:01:57;12.00;99.90
37998;DHT22;24079;51.824;4.682;2024-03-02T11:04:25;11.80;99.90
37998;DHT22;24079;51.824;4.682;2024-03-02T11:06:52;11.80;99.90
37998;DHT22;24079;51.824;4.682;2024-03-02T11:09:22;11.90;99.90
37998;DHT22;24079;51.824;4.682;2024-03-02T11:13:09;11.80;99.90
37998;DHT22;24079;51.824;4.682;2024-03-02T11:15:10;11.80;99.90
37998;DHT22;24079;51.824;4.682;2024-03-02T11:17:36;11.90;99.90
37998;DHT22;24079;51.824;4.682;2024-03-02T11:20:03;11.90;99.90
37998;DHT22;24079;51.824;4.682;2024-03-02T11:22:30;11.80;99.90
37998;DHT22;24079;51.824;4.682;2024-03-02T11:24:55;11.80;99.90
37998;DHT22;24079;51.824;4.682;2024-03-02T11:28:00;11.90;99.90
37998;DHT22;24079;51.824;4.682;2024-03-02T11:32:59;12.00;99.90
37998;DHT22;24079;51.824;4.682;2024-03-02T11:35:25;12.10;99.90
37998;DHT22;24079;51.824;4.682;2024-03-02T11:37:52;12.00;99.90
37998;DHT22;24079;51.824;4.682;2024-03-02T11:40:28;11.90;99.90
37998;DHT22;24079;51.824;4.682;2024-03-02T11:42:54;12.00;99.90
37998;DHT22;24079;51.824;4.682;2024-03-02T11:45:27;11.90;99.90
37998;DHT22;24079;51.824;4.682;2024-03-02T11:47:57;11.90;99.90
37998;DHT22;24079;51.824;4.682;2024-03-02T11:50:42;11.90;99.90
37998;DHT22;24079;51.824;4.682;2024-03-02T11:53:09;12.00;99.90
37998;DHT22;24079;51.824;4.682;2024-03-02T11:55:37;12.00;99.90
37998;DHT22;24079;51.824;4.682;2024-03-02T11:58:06;12.00;99.90
37998;DHT22;24079;51.824;4.682;2024-03-02T12:00:32;12.20;99.90
37998;DHT22;24079;51.824;4.682;2024-03-02T12:03:05;12.30;99.90
37998;DHT22;24079;51.824;4.682;2024-03-02T12:05:32;12.20;99.90
37998;DHT22;24079;51.824;4.682;2024-03-02T12:07:59;12.30;99.90
37998;DHT22;24079;51.824;4.682;2024-03-02T12:10:26;12.30;99.90
37998;DHT22;24079;51.824;4.682;2024-03-02T12:13:00;12.40;99.90
37998;DHT22;24079;51.824;4.682;2024-03-02T12:15:27;12.50;99.90
37998;DHT22;24079;51.824;4.682;2024-03-02T12:17:58;12.50;99.90
37998;DHT22;24079;51.824;4.682;2024-03-02T12:20:25;12.60;99.90
37998;DHT22;24079;51.824;4.682;2024-03-02T12:22:58;12.60;99.90
37998;DHT22;24079;51.824;4.682;2024-03-02T12:25:24;12.60;99.90
37998;DHT22;24079;51.824;4.682;2024-03-02T12:27:52;12.50;99.90
37998;DHT22;24079;51.824;4.682;2024-03-02T12:30:19;12.40;99.90
37998;DHT22;24079;51.824;4.682;2024-03-02T12:32:46;12.50;99.90
37998;DHT22;24079;51.824;4.682;2024-03-02T12:35:14;12.50;99.90
37998;DHT22;24079;51.824;4.682;2024-03-02T12:37:47;12.50;99.90
37998;DHT22;24079;51.824;4.682;2024-03-02T12:40:14;12.70;99.90
37998;DHT22;24079;51.824;4.682;2024-03-02T12:42:41;12.90;99.90
37998;DHT22;24079;51.824;4.682;2024-03-02T12:45:11;13.10;99.90
37998;DHT22;24079;51.824;4.682;2024-03-02T12:47:38;13.00;99.90
37998;DHT22;24079;51.824;4.682;2024-03-02T12:50:05;13.00;99.90
37998;DHT22;24079;51.824;4.682;2024-03-02T12:52:31;12.90;99.90
37998;DHT22;24079;51.824;4.682;2024-03-02T12:55:01;12.90;99.90
37998;DHT22;24079;51.824;4.682;2024-03-02T12:57:30;12.90;99.90
37998;DHT22;24079;51.824;4.682;2024-03-02T13:00:04;13.00;99.90
37998;DHT22;24079;51.824;4.682;2024-03-02T13:02:40;13.00;99.90
37998;DHT22;24079;51.824;4.682;2024-03-02T13:05:07;13.00;99.90
37998;DHT22;24079;51.824;4.682;2024-03-02T13:07:37;12.90;99.90
37998;DHT22;24079;51.824;4.682;2024-03-02T13:10:04;12.90;99.90
37998;DHT22;24079;51.824;4.682;2024-03-02T13:12:30;13.00;99.90
37998;DHT22;24079;51.824;4.682;2024-03-02T13:14:58;13.20;99.90
37998;DHT22;24079;51.824;4.682;2024-03-02T13:17:24;13.20;99.90
37998;DHT22;24079;51.824;4.682;2024-03-02T13:19:57;13.20;99.90
37998;DHT22;24079;51.824;4.682;2024-03-02T13:22:25;13.20;99.90
37998;DHT22;24079;51.824;4.682;2024-03-02T13:24:52;13.20;99.90
37998;DHT22;24079;51.824;4.682;2024-03-02T13:27:20;13.40;99.90
37998;DHT22;24079;51.824;4.682;2024-03-02T13:29:47;13.50;99.90
37998;DHT22;24079;51.824;4.682;2024-03-02T13:32:16;13.40;99.90
37998;DHT22;24079;51.824;4.682;2024-03-02T13:34:43;13.50;99.90
37998;DHT22;24079;51.824;4.682;2024-03-02T13:37:09;13.40;99.90
37998;DHT22;24079;51.824;4.682;2024-03-02T13:39:35;13.40;99.90
37998;DHT22;24079;51.824;4.682;2024-03-02T13:42:09;13.30;99.90
37998;DHT22;24079;51.824;4.682;2024-03-02T13:44:36;13.30;99.90
37998;DHT22;24079;51.824;4.682;2024-03-02T13:47:03;13.30;99.90
37998;DHT22;24079;51.824;4.682;2024-03-02T13:49:32;13.20;99.90
37998;DHT22;24079;51.824;4.682;2024-03-02T13:52:07;13.20;99.90
37998;DHT22;24079;51.824;4.682;2024-03-02T13:54:42;13.10;99.90
37998;DHT22;24079;51.824;4.682;2024-03-02T13:57:10;13.10;99.90
37998;DHT22;24079;51.824;4.682;2024-03-02T13:59:36;13.20;99.90
37998;DHT22;24079;51.824;4.682;2024-03-02T14:02:03;13.30;99.90
37998;DHT22;24079;51.824;4.682;2024-03-02T14:04:31;13.30;99.90
37998;DHT22;24079;51.824;4.682;2024-03-02T14:06:57;13.30;99.90
37998;DHT22;24079;51.824;4.682;2024-03-02T14:09:27;13.30;99.90
37998;DHT22;24079;51.824;4.682;2024-03-02T14:11:53;13.20;99.90
37998;DHT22;24079;51.824;4.682;2024-03-02T14:14:20;13.10;99.90
37998;DHT22;24079;51.824;4.682;2024-03-02T14:16:45;13.10;99.90
37998;DHT22;24079;51.824;4.682;2024-03-02T14:19:11;13.10;99.90
37998;DHT22;24079;51.824;4.682;2024-03-02T14:21:38;13.00;99.90
37998;DHT22;24079;51.824;4.682;2024-03-02T14:24:04;12.90;99.90
37998;DHT22;24079;51.824;4.682;2024-03-02T14:26:30;12.90;99.90
37998;DHT22;24079;51.824;4.682;2024-03-02T14:28:55;12.90;99.90
37998;DHT22;24079;51.824;4.682;2024-03-02T14:31:21;13.00;99.90
37998;DHT22;24079;51.824;4.682;2024-03-02T14:33:47;13.10;99.90
37998;DHT22;24079;51.824;4.682;2024-03-02T14:36:12;13.10;99.90
37998;DHT22;24079;51.824;4.682;2024-03-02T14:38:39;13.20;99.90
37998;DHT22;24079;51.824;4.682;2024-03-02T14:41:04;13.20;99.90
37998;DHT22;24079;51.824;4.682;2024-03-02T14:43:30;13.30;99.90
37998;DHT22;24079;51.824;4.682;2024-03-02T14:45:56;13.30;99.90
37998;DHT22;24079;51.824;4.682;2024-03-02T14:48:22;13.30;99.90
37998;DHT22;24079;51.824;4.682;2024-03-02T14:50:48;13.30;99.90
37998;DHT22;24079;51.824;4.682;2024-03-02T14:53:16;13.30;99.90
37998;DHT22;24079;51.824;4.682;2024-03-02T14:55:42;13.40;99.90
37998;DHT22;24079;51.824;4.682;2024-03-02T14:58:07;13.30;99.90
37998;DHT22;24079;51.824;4.682;2024-03-02T15:00:33;13.40;99.90
37998;DHT22;24079;51.824;4.682;2024-03-02T15:02:59;13.40;99.90
37998;DHT22;24079;51.824;4.682;2024-03-02T15:05:25;13.30;99.90
37998;DHT22;24079;51.824;4.682;2024-03-02T15:07:52;13.30;99.90
37998;DHT22;24079;51.824;4.682;2024-03-02T15:10:17;13.20;99.90
37998;DHT22;24079;51.824;4.682;2024-03-02T15:12:45;13.30;99.90
37998;DHT22;24079;51.824;4.682;2024-03-02T15:15:11;13.20;99.90
37998;DHT22;24079;51.824;4.682;2024-03-02T15:17:37;13.20;99.90
37998;DHT22;24079;51.824;4.682;2024-03-02T15:20:03;13.20;99.90
37998;DHT22;24079;51.824;4.682;2024-03-02T15:22:32;13.20;99.90
37998;DHT22;24079;51.824;4.682;2024-03-02T15:24:58;13.10;99.90
37998;DHT22;24079;51.824;4.682;2024-03-02T15:27:24;13.10;99.90
37998;DHT22;24079;51.824;4.682;2024-03-02T15:29:50;13.00;99.90
37998;DHT22;24079;51.824;4.682;2024-03-02T15:32:17;13.10;99.90
37998;DHT22;24079;51.824;4.682;2024-03-02T15:34:43;13.20;99.90
37998;DHT22;24079;51.824;4.682;2024-03-02T15:37:09;13.20;99.90
37998;DHT22;24079;51.824;4.682;2024-03-02T15:39:35;13.30;99.90
37998;DHT22;24079;51.824;4.682;2024-03-02T15:42:01;13.20;99.90
37998;DHT22;24079;51.824;4.682;2024-03-02T15:44:29;13.20;99.90
37998;DHT22;24079;51.824;4.682;2024-03-02T15:46:55;13.10;99.90
37998;DHT22;24079;51.824;4.682;2024-03-02T15:49:21;13.10;99.90
37998;DHT22;24079;51.824;4.682;2024-03-02T15:51:47;13.10;99.90